Saint Felix Lauragais

FR-1037 · Haute-Garonne, Occitanie, Frankreich

METAR-Geschichte FR-1037 · Saint Felix Lauragais

Unten siehst du die METARs der letzten paar Tage. Wähle ein Jahr, um ältere METARs ab dem Jahr 2007 zu durchsuchen.

24. Juli 2024

Uhrzeit Code Wetter Temp. Sichtweite Wolkendecke Wind METAR/SPECI
09:00
V
21 °C 10 km+ - Var Var 3 kt METAR LFCK 240700Z AUTO VRB03KT 9999 FEW043 21/19 Q1022 NOSIG
08:30
V
20 °C 10 km+ - Var Var 2 kt METAR LFCK 240630Z AUTO VRB02KT 9999 SCT043 20/18 Q1022 NOSIG
08:00
V
19 °C 10 km+ - 020° 020° 2 kt METAR LFCK 240600Z AUTO 02002KT CAVOK 19/18 Q1022 BECMG 28010KT
07:30
V
18 °C 10 km+ - 360° 360° 0 kt METAR LFCK 240530Z AUTO 00000KT CAVOK 18/17 Q1022
07:00
M
17 °C 7 km - 360° 360° 0 kt METAR LFCK 240500Z AUTO 00000KT 7000 NSC 17/17 Q1022
06:30
V
16 °C 8 km - 210° 210° 1 kt METAR LFCK 240430Z AUTO 21001KT 8000 NSC 16/16 Q1022
06:00
V
17 °C 10 km+ - 070° 070° 3 kt METAR LFCK 240400Z AUTO 07003KT CAVOK 17/16 Q1022
05:30
V
17 °C 10 km+ - 050° 050° 2 kt METAR LFCK 240330Z AUTO 05002KT CAVOK 17/17 Q1021
05:00
V
17 °C 10 km+ - 330° 330° 1 kt METAR LFCK 240300Z AUTO 33001KT CAVOK 17/17 Q1022
04:30
V
17 °C 10 km+ - 290° 290° 2 kt METAR LFCK 240230Z AUTO 29002KT CAVOK 17/17 Q1022
04:00
V
17 °C 10 km+ - Var Var 1 kt METAR LFCK 240200Z AUTO VRB01KT CAVOK 17/17 Q1022
03:30
V
18 °C 10 km+ - 360° 360° 0 kt METAR LFCK 240130Z AUTO 00000KT CAVOK 18/17 Q1022
03:00
V
18 °C 10 km+ - 360° 360° 0 kt METAR LFCK 240100Z AUTO 00000KT CAVOK 18/17 Q1022
02:30
V
18 °C 10 km+ - 260° 260° 2 kt METAR LFCK 240030Z AUTO 26002KT CAVOK 18/17 Q1022
02:00
V
19 °C 10 km+ - Var Var 2 kt METAR LFCK 240000Z AUTO VRB02KT CAVOK 19/17 Q1023
01:30
V
19 °C 10 km+ - 360° 360° 0 kt METAR LFCK 232330Z AUTO 00000KT CAVOK 19/18 Q1023
01:00
V
20 °C 10 km+ - Var Var 2 kt METAR LFCK 232300Z AUTO VRB02KT CAVOK 20/18 Q1023
00:30
V
20 °C 10 km+ - Var Var 3 kt METAR LFCK 232230Z AUTO VRB03KT CAVOK 20/18 Q1023
00:00
V
20 °C 10 km+ - 010° 010° 3 kt METAR LFCK 232200Z AUTO 01003KT CAVOK 20/18 Q1023

23. Juli 2024

Uhrzeit Code Wetter Temp. Sichtweite Wolkendecke Wind METAR/SPECI
23:30
V
23 °C 10 km+ - 290° 290° 5 kt METAR LFCK 232130Z AUTO 29005KT CAVOK 23/18 Q1023
23:00
V
23 °C 10 km+ - 300° 300° 4 kt METAR LFCK 232100Z AUTO 30004KT CAVOK 23/18 Q1023 NOSIG
22:30
V
24 °C 10 km+ - 290° 290° 5 kt METAR LFCK 232030Z AUTO 29005KT CAVOK 24/18 Q1023 NOSIG
22:00
V
25 °C 10 km+ - 280° 280° 6 kt METAR LFCK 232000Z AUTO 28006KT CAVOK 25/18 Q1022 NOSIG
21:30
V
26 °C 10 km+ - 280° 280° 7 kt METAR LFCK 231930Z AUTO 28007KT CAVOK 26/18 Q1022 NOSIG
21:00
V
27 °C 10 km+ - 280° 280° 7 kt METAR LFCK 231900Z AUTO 28007KT CAVOK 27/18 Q1022 NOSIG
20:30
V
28 °C 10 km+ - 290° 290° 9 kt METAR LFCK 231830Z AUTO 29009KT CAVOK 28/18 Q1022 NOSIG
20:00
V
28 °C 10 km+ - 290° 290° 10 kt METAR LFCK 231800Z AUTO 29010KT CAVOK 28/19 Q1021 NOSIG
19:30
V
29 °C 10 km+ - 310° 310° 9 kt METAR LFCK 231730Z AUTO 31009KT CAVOK 29/19 Q1022 NOSIG
19:00
V
29 °C 10 km+ - 330° 330° 8 kt METAR LFCK 231700Z AUTO 33008KT 290V360 CAVOK 29/18 Q1021 NOSIG
18:30
V
29 °C 10 km+ - 310° 310° 8 kt METAR LFCK 231630Z AUTO 31008KT 9999 FEW046 29/18 Q1022 NOSIG
18:00
V
29 °C 10 km+ - 320° 320° 8 kt METAR LFCK 231600Z AUTO 32008KT 270V350 9999 FEW047 29/18 Q1022 NOSIG
17:30
V
29 °C 10 km+ - 340° 340° 8 kt METAR LFCK 231530Z AUTO 34008KT 290V020 CAVOK 29/18 Q1022 NOSIG
17:00
V
29 °C 10 km+ - 320° 320° 8 kt METAR LFCK 231500Z AUTO 32008KT 280V020 CAVOK 29/18 Q1022 NOSIG
16:30
V
28 °C 10 km+ - 340° 340° 7 kt METAR LFCK 231430Z AUTO 34007KT 310V030 CAVOK 28/18 Q1022 NOSIG
16:00
V
28 °C 10 km+ - 310° 310° 6 kt METAR LFCK 231400Z AUTO 31006KT 270V360 CAVOK 28/18 Q1023 NOSIG
15:30
V
27 °C 10 km+ - 350° 350° 8 kt METAR LFCK 231330Z AUTO 35008KT CAVOK 27/18 Q1023 NOSIG
15:00
V
27 °C 10 km+ - 320° 320° 6 kt METAR LFCK 231300Z AUTO 32006KT 290V350 CAVOK 27/17 Q1023 NOSIG
14:30
V
26 °C 10 km+ - 310° 310° 8 kt METAR LFCK 231230Z AUTO 31008KT 260V350 CAVOK 26/16 Q1023 NOSIG
14:00
V
26 °C 10 km+ - 280° 280° 6 kt METAR LFCK 231200Z AUTO 28006KT 230V010 CAVOK 26/16 Q1023 NOSIG
13:30
V
25 °C 10 km+ - 330° 330° 5 kt METAR LFCK 231130Z AUTO 33005KT 260V040 CAVOK 25/16 Q1024 NOSIG
13:00
V
24 °C 10 km+ - 290° 290° 6 kt METAR LFCK 231100Z AUTO 29006KT 240V320 CAVOK 24/17 Q1024 NOSIG
12:30
V
24 °C 10 km+ - 290° 290° 5 kt METAR LFCK 231030Z AUTO 29005KT 230V350 CAVOK 24/17 Q1024 NOSIG
12:00
V
23 °C 10 km+ - 270° 270° 6 kt METAR LFCK 231000Z AUTO 27006KT CAVOK 23/16 Q1024 NOSIG
11:30
V
23 °C 10 km+ - Var Var 3 kt METAR LFCK 230930Z AUTO VRB03KT CAVOK 23/15 Q1024 NOSIG
11:00
V
22 °C 10 km+ - 260° 260° 4 kt METAR LFCK 230900Z AUTO 26004KT 190V320 CAVOK 22/16 Q1024 NOSIG
10:30
V
21 °C 10 km+ - 270° 270° 3 kt METAR LFCK 230830Z AUTO 27003KT 210V310 CAVOK 21/15 Q1024 NOSIG
10:00
V
20 °C 10 km+ - Var Var 3 kt METAR LFCK 230800Z AUTO VRB03KT CAVOK 20/15 Q1024 NOSIG
09:30
V
19 °C 10 km+ - Var Var 3 kt METAR LFCK 230730Z AUTO VRB03KT CAVOK 19/15 Q1024 NOSIG
09:00
V
18 °C 10 km+ - Var Var 2 kt METAR LFCK 230700Z AUTO VRB02KT CAVOK 18/15 Q1024 NOSIG
08:30
V
18 °C 10 km+ - 360° 360° 0 kt METAR LFCK 230630Z AUTO 00000KT CAVOK 18/15 Q1024 NOSIG
08:00
V
15 °C 10 km+ - 360° 360° 0 kt METAR LFCK 230600Z AUTO 00000KT CAVOK 15/14 Q1024 NOSIG
07:30
V
14 °C 10 km+ - 360° 360° 0 kt METAR LFCK 230530Z AUTO 00000KT CAVOK 14/14 Q1024
07:00
V
13 °C 10 km+ - 360° 360° 0 kt METAR LFCK 230500Z AUTO 00000KT CAVOK 13/13 Q1024
06:30
V
13 °C 10 km+ - 360° 360° 0 kt METAR LFCK 230430Z AUTO 00000KT CAVOK 13/13 Q1024
06:00
V
13 °C 10 km+ - 360° 360° 0 kt METAR LFCK 230400Z AUTO 00000KT CAVOK 13/13 Q1024
05:30
V
13 °C 10 km+ - Var Var 2 kt METAR LFCK 230330Z AUTO VRB02KT CAVOK 13/13 Q1024
05:00
V
13 °C 10 km+ - 130° 130° 3 kt METAR LFCK 230300Z AUTO 13003KT CAVOK 13/13 Q1024
04:30
V
13 °C 10 km+ - 360° 360° 0 kt METAR LFCK 230230Z AUTO 00000KT CAVOK 13/13 Q1024
04:00
V
13 °C 10 km+ - 360° 360° 0 kt METAR LFCK 230200Z AUTO 00000KT CAVOK 13/13 Q1024
03:30
V
14 °C 10 km+ - 360° 360° 0 kt METAR LFCK 230130Z AUTO 00000KT CAVOK 14/13 Q1024
03:00
V
14 °C 10 km+ - 360° 360° 0 kt METAR LFCK 230100Z AUTO 00000KT CAVOK 14/13 Q1024
02:30
V
14 °C 10 km+ - 360° 360° 0 kt METAR LFCK 230030Z AUTO 00000KT CAVOK 14/14 Q1024
02:00
V
14 °C 10 km+ - 360° 360° 0 kt METAR LFCK 230000Z AUTO 00000KT CAVOK 14/13 Q1024
01:30
V
15 °C 10 km+ - 130° 130° 2 kt METAR LFCK 222330Z AUTO 13002KT CAVOK 15/14 Q1024
01:00
V
14 °C 10 km+ - 140° 140° 2 kt METAR LFCK 222300Z AUTO 14002KT CAVOK 14/13 Q1024
00:30
V
15 °C 10 km+ - 080° 080° 3 kt METAR LFCK 222230Z AUTO 08003KT CAVOK 15/14 Q1024
00:00
V
15 °C 10 km+ - 070° 070° 3 kt METAR LFCK 222200Z AUTO 07003KT CAVOK 15/14 Q1024

22. Juli 2024

Uhrzeit Code Wetter Temp. Sichtweite Wolkendecke Wind METAR/SPECI
23:30
V
16 °C 10 km+ - 040° 040° 2 kt METAR LFCK 222130Z AUTO 04002KT CAVOK 16/14 Q1024
23:00
V
16 °C 10 km+ - 030° 030° 3 kt METAR LFCK 222100Z AUTO 03003KT CAVOK 16/14 Q1024 NOSIG
22:30
V
17 °C 10 km+ - 250° 250° 4 kt METAR LFCK 222030Z AUTO 25004KT 9999 SCT035 17/14 Q1024 NOSIG
22:00
V
18 °C 10 km+ 3.600 ft 250° 250° 5 kt METAR LFCK 222000Z AUTO 25005KT 9999 BKN036 18/14 Q1024 NOSIG
21:30
V
19 °C 10 km+ 3.400 ft 270° 270° 6 kt METAR LFCK 221930Z AUTO 27006KT 9999 BKN034 19/14 Q1024 NOSIG
21:00
V
20 °C 10 km+ 3.300 ft 270° 270° 6 kt METAR LFCK 221900Z AUTO 27006KT 9999 BKN033 20/14 Q1024 NOSIG
20:30
V
21 °C 10 km+ 3.100 ft 300° 300° 8 kt METAR LFCK 221830Z AUTO 30008KT 9999 OVC031 21/14 Q1023 NOSIG
20:00
M
20 °C 10 km+ 2.900 ft 290° 290° 10 kt METAR LFCK 221800Z AUTO 29010KT 240V330 9999 OVC029 20/14 Q1023 NOSIG
19:30
M
20 °C 10 km+ 2.900 ft 300° 300° 9 kt METAR LFCK 221730Z AUTO 30009KT 260V330 9999 OVC029 20/14 Q1023 NOSIG
19:00
M
20 °C 10 km+ 3.000 ft 310° 310° 10 kt METAR LFCK 221700Z AUTO 31010KT 240V340 9999 OVC030 20/14 Q1023 NOSIG
18:30
M
21 °C 10 km+ 3.000 ft 290° 290° 9 kt METAR LFCK 221630Z AUTO 29009KT 260V340 9999 OVC030 21/14 Q1023 NOSIG
18:00
M
20 °C 10 km+ 2.900 ft 300° 300° 9 kt METAR LFCK 221600Z AUTO 30009KT 260V360 9999 OVC029 20/14 Q1023 NOSIG
17:30
M
20 °C 10 km+ 2.900 ft 290° 290° 9 kt METAR LFCK 221530Z AUTO 29009KT 250V340 9999 OVC029 20/15 Q1023 NOSIG
17:00
M
20 °C 10 km+ 2.900 ft 280° 280° 11 kt METAR LFCK 221500Z AUTO 28011KT 260V320 9999 OVC029 20/14 Q1023 NOSIG
16:30
V
21 °C 10 km+ 3.100 ft 300° 300° 11 kt METAR LFCK 221430Z AUTO 30011KT 250V340 9999 OVC031 21/14 Q1023 NOSIG
16:00
V
20 °C 10 km+ 3.100 ft 290° 290° 11 kt METAR LFCK 221400Z AUTO 29011KT 240V340 9999 OVC031 20/14 Q1024 NOSIG
15:30
M
20 °C 10 km+ 2.900 ft 290° 290° 11 kt METAR LFCK 221330Z AUTO 29011KT 9999 OVC029 20/14 Q1024 NOSIG
15:00
M
20 °C 10 km+ 3.000 ft 320° 320° 11 kt METAR LFCK 221300Z AUTO 32011KT 260V350 9999 OVC030 20/14 Q1024 NOSIG
14:30
M
20 °C 10 km+ 2.600 ft 280° 280° 11 kt METAR LFCK 221230Z AUTO 28011KT 9999 BKN026 OVC032 20/14 Q1024 NOSIG
14:00
M
19 °C 10 km+ 2.700 ft 290° 290° 10 kt METAR LFCK 221200Z AUTO 29010KT 9999 BKN027 OVC032 19/14 Q1024 NOSIG
13:30
V
19 °C 10 km+ 3.100 ft 300° 300° 11 kt METAR LFCK 221130Z AUTO 30011KT 9999 FEW024 OVC031 19/14 Q1024 NOSIG
13:00
V
19 °C 10 km+ 3.200 ft 290° 290° 9 kt METAR LFCK 221100Z AUTO 29009KT 9999 SCT025 OVC032 19/14 Q1024 NOSIG
12:30
M
19 °C 10 km+ 2.300 ft 280° 280° 9 kt METAR LFCK 221030Z AUTO 28009KT 9999 BKN023 OVC033 19/14 Q1024 NOSIG
12:00
V
19 °C 10 km+ 3.200 ft 320° 320° 8 kt METAR LFCK 221000Z AUTO 32008KT 290V350 9999 FEW025 OVC032 19/14 Q1024 NOSIG
11:30
V
18 °C 10 km+ 3.200 ft 310° 310° 7 kt METAR LFCK 220930Z AUTO 31007KT 9999 OVC032 18/14 Q1024 NOSIG
11:00
M
18 °C 10 km+ 2.900 ft 300° 300° 6 kt METAR LFCK 220900Z AUTO 30006KT 9999 FEW020 BKN029 OVC034 18/15 Q1024 NOSIG
10:30
M
17 °C 10 km+ 1.700 ft 280° 280° 6 kt METAR LFCK 220830Z AUTO 28006KT 9999 BKN017 BKN023 BKN028 17/15 Q1024 NOSIG
10:00
V
17 °C 10 km+ 3.500 ft 300° 300° 8 kt METAR LFCK 220800Z AUTO 30008KT 9999 FEW015 OVC035 17/15 Q1024 NOSIG
09:30
M
17 °C 10 km+ 1.000 ft 290° 290° 6 kt METAR LFCK 220730Z AUTO 29006KT 9999 BKN010 BKN019 OVC035 17/16 Q1024 BECMG OVC016
09:00
I
17 °C 10 km+ 800 ft 280° 280° 7 kt METAR LFCK 220700Z AUTO 28007KT 9999 BKN008 BKN014 OVC023 17/16 Q1024 BECMG OVC016
08:30
I
16 °C 10 km+ 700 ft 280° 280° 6 kt METAR LFCK 220630Z AUTO 28006KT 9999 OVC007 16/16 Q1023 BECMG OVC018
08:00
I
16 °C 10 km+ 900 ft 290° 290° 10 kt METAR LFCK 220600Z AUTO 29010KT 9999 BKN009 OVC030 16/16 Q1023 BECMG OVC018
Eine Änderung melden